Llanca, Spain
Current Conditions -  °F | °C
As of 10:30 PM on Wednesday 26 Nov 2014 (Local Time) from LFMP Reporting Station
Overcast Overcast  
Wind Chill: 57°   Ceiling: 5200
Heat Index: 57°   Visibility: 6mi
Dew Point: 55°   Wind: 3mph
Humidity: 94%   Direction: 250°WSW
Pressure: 29.77"   Gusts: NA
Location:  42.36°N, 3.15°E
Report Text: LFMP 262130Z AUTO 25003KT 9999 FEW018 OVC052 14/13 Q1008
Loading
Personal Weather Stations






























Interactive Weather Map New forecast layout! Learn more

10-Day Weather Forecast

Advertisements
Track Severe Weather on mobile